Time;durP1;ratioP1;P1;durP2;ratioP2;P2;SDS_P1;SDS_P2;PMS_P1;PMS_P2;Temp;Humidity;BMP_temperature;BMP_pressure;BME280_temperature;BME280_humidity;BME280_pressure;Samples;Min_cycle;Max_cycle;Signal;HPM_P1;HPM_P2
2022/09/14 00:01:39;;;;;;;3.85;2.70;;;20.90;66.10;;;23.83;45.69;96739.81;5025025;28;20262;-58
2022/09/14 00:04:18;;;;;;;4.20;3.00;;;20.90;66.70;;;23.78;45.75;96733.28;5026126;28;20359;-57
2022/09/14 00:06:47;;;;;;;3.28;2.75;;;20.80;66.70;;;23.76;46.01;96732.69;5025490;28;20060;-59
2022/09/14 00:09:19;;;;;;;3.03;2.55;;;20.80;66.60;;;23.78;45.93;96727.03;5024671;28;20339;-57
2022/09/14 00:11:48;;;;;;;4.38;2.58;;;20.80;66.90;;;23.79;46.05;96717.81;5025646;28;20356;-58
2022/09/14 00:14:18;;;;;;;6.07;3.05;;;20.80;67.10;;;23.78;45.93;96718.88;5026080;28;20049;-57
2022/09/14 00:16:46;;;;;;;4.53;3.53;;;20.80;67.10;;;23.78;45.70;96716.97;5024999;28;20057;-57
2022/09/14 00:19:24;;;;;;;4.55;3.30;;;20.90;66.70;;;23.81;45.71;96712.06;5028115;28;20063;-58
2022/09/14 00:21:57;;;;;;;4.75;3.28;;;20.90;67.10;;;23.81;45.77;96712.06;5029443;28;20053;-57
2022/09/14 00:24:31;;;;;;;3.47;2.78;;;20.90;66.70;;;23.82;45.87;96706.38;5028867;28;20033;-57
2022/09/14 00:26:59;;;;;;;3.15;2.83;;;20.90;66.90;;;23.82;45.69;96708.28;5030863;28;20045;-58
2022/09/14 00:29:28;;;;;;;4.95;3.15;;;20.90;66.70;;;23.79;45.91;96696.06;5029622;28;20050;-57
2022/09/14 00:31:57;;;;;;;4.57;3.17;;;20.90;66.50;;;23.79;45.74;96701.50;5028745;28;20241;-58
2022/09/14 00:34:26;;;;;;;3.72;2.90;;;20.90;66.50;;;23.78;45.88;96700.66;5028362;28;20049;-57
2022/09/14 00:36:54;;;;;;;3.50;2.83;;;20.90;66.70;;;23.78;45.74;96692.50;5028851;28;20061;-58
2022/09/14 00:39:23;;;;;;;6.85;4.05;;;20.80;66.60;;;23.76;45.84;96689.22;5028087;28;20049;-55
2022/09/14 00:41:51;;;;;;;4.43;3.55;;;20.80;66.60;;;23.77;45.77;96676.47;5029327;28;20049;-59
2022/09/14 00:44:19;;;;;;;5.28;3.15;;;20.80;66.50;;;23.79;45.71;96685.19;5029725;28;20045;-57
2022/09/14 00:46:52;;;;;;;5.30;4.00;;;20.80;66.50;;;23.77;45.72;96685.44;5013038;28;20260;-58
2022/09/14 00:49:36;;;;;;;4.00;3.30;;;20.90;66.60;;;23.81;45.75;96676.75;5028338;28;20339;-58
2022/09/14 00:52:08;;;;;;;4.30;3.17;;;20.90;67.10;;;23.74;45.99;96691.38;5029163;28;20071;-58
2022/09/14 00:54:48;;;;;;;3.83;2.85;;;20.80;67.20;;;23.65;46.32;96684.88;5028535;28;20055;-57
2022/09/14 00:57:18;;;;;;;2.92;2.63;;;20.60;68.40;;;23.59;46.02;96667.75;5028893;28;20057;-57
2022/09/14 00:59:49;;;;;;;3.72;2.50;;;20.50;68.00;;;23.55;46.05;96658.50;5028624;28;20076;-57
2022/09/14 01:02:20;;;;;;;6.30;2.97;;;20.60;67.80;;;23.57;45.90;96650.91;5028043;28;20049;-57
2022/09/14 01:04:49;;;;;;;3.72;2.63;;;20.60;67.20;;;23.63;46.20;96642.75;5028004;28;20240;-57
2022/09/14 01:07:58;;;;;;;5.05;3.22;;;20.70;67.40;;;23.63;46.22;96640.81;5029171;28;20041;-56
2022/09/14 01:11:00;;;;;;;4.82;2.80;;;20.80;67.70;;;23.67;45.94;96625.66;5027792;28;20262;-58
2022/09/14 01:14:04;;;;;;;3.45;2.78;;;20.70;67.70;;;23.66;46.24;96628.63;5029212;28;20053;-57
2022/09/14 01:16:45;;;;;;;;;;;20.70;68.50;;;23.75;45.74;96627.00;5030948;28;20056;-57
2022/09/14 01:20:03;;;;;;;3.85;2.75;;;20.60;69.60;;;23.63;45.83;96621.81;5030513;28;20096;-57
2022/09/14 01:22:41;;;;;;;10.77;3.65;;;20.60;68.10;;;23.62;46.62;96620.19;5028476;28;20355;-57
2022/09/14 01:25:40;;;;;;;3.60;3.25;;;20.60;70.10;;;23.57;46.99;96622.91;5028600;28;20053;-57
2022/09/14 01:28:21;;;;;;;4.30;3.03;;;20.60;70.80;;;23.56;48.45;96649.25;5028486;28;20060;-55
2022/09/14 01:30:52;;;;;;;4.50;3.17;;;20.60;73.20;;;23.49;48.23;96678.56;5025369;28;20049;-55
2022/09/14 01:33:39;;;;;;;4.18;3.58;;;20.50;73.50;;;23.44;48.58;96732.03;5029102;28;20071;-57
2022/09/14 01:36:10;;;;;;;3.95;2.95;;;20.50;75.80;;;23.39;48.71;96770.88;5029274;28;20061;-56
2022/09/14 01:38:49;;;;;;;4.85;3.00;;;20.40;75.20;;;23.33;48.41;96764.59;5028450;28;20046;-56
2022/09/14 01:41:23;;;;;;;8.50;4.20;;;20.30;75.20;;;23.26;49.71;96752.34;5028205;28;20484;-57
2022/09/14 01:44:14;;;;;;;9.25;4.18;;;20.30;77.60;;;22.94;50.55;96707.09;5027250;28;20055;-55
2022/09/14 01:46:48;;;;;;;7.53;4.78;;;20.00;86.90;;;22.54;53.61;96719.31;5013250;28;20038;-55
2022/09/14 01:49:17;;;;;;;7.00;4.13;;;19.60;98.70;;;22.29;54.48;96725.38;5029235;28;20057;-53
2022/09/14 01:52:17;;;;;;;5.18;4.18;;;19.40;99.90;;;21.97;54.93;96732.38;5028138;28;20629;-53
2022/09/14 01:54:57;;;;;;;6.50;3.72;;;19.20;99.90;;;21.94;55.05;96719.34;5027530;28;20053;-54
2022/09/14 01:57:33;;;;;;;4.43;3.45;;;19.00;99.90;;;21.82;55.80;96733.03;5027607;28;20067;-52
2022/09/14 02:00:08;;;;;;;5.55;3.40;;;18.80;99.90;;;21.75;56.52;96742.44;5027065;28;20499;-54
2022/09/14 02:02:50;;;;;;;4.68;3.88;;;18.60;99.90;;;21.73;56.75;96750.84;5028994;28;20232;-54
2022/09/14 02:05:35;;;;;;;4.82;3.72;;;18.70;99.90;;;21.57;57.23;96746.31;5012446;28;20063;-54
2022/09/14 02:08:04;;;;;;;5.20;4.00;;;18.60;99.90;;;21.51;57.69;96747.34;5027938;28;20053;-53
2022/09/14 02:10:32;;;;;;;5.57;3.72;;;18.50;99.90;;;21.55;57.87;96741.16;5028830;28;20225;-53
2022/09/14 02:13:00;;;;;;;5.13;4.28;;;18.60;99.90;;;21.50;58.18;96730.28;5028066;28;20067;-54
2022/09/14 02:15:28;;;;;;;6.38;4.15;;;18.60;99.90;;;21.37;58.64;96730.63;5026123;28;20061;-54
2022/09/14 02:17:55;;;;;;;7.60;4.47;;;18.50;99.90;;;21.23;59.75;96727.47;5028687;28;20072;-55
2022/09/14 02:20:32;;;;;;;4.65;4.13;;;18.40;99.90;;;21.30;59.21;96717.25;5028670;28;20692;-55
2022/09/14 02:22:59;;;;;;;6.53;4.22;;;18.30;99.90;;;21.31;59.54;96720.81;5026886;28;20053;-54
2022/09/14 02:25:27;;;;;;;6.78;4.13;;;18.40;99.90;;;21.33;59.60;96708.66;5028583;28;20052;-53
2022/09/14 02:27:55;;;;;;;5.15;3.78;;;18.40;99.90;;;21.39;59.33;96710.34;5028244;28;20344;-54
2022/09/14 02:30:23;;;;;;;7.95;4.20;;;18.50;99.90;;;21.46;59.38;96715.63;5028366;28;20053;-53
2022/09/14 02:33:22;;;;;;;10.65;4.70;;;18.50;99.90;;;21.27;60.01;96717.78;5026714;28;20447;-52
2022/09/14 02:35:54;;;;;;;6.07;3.85;;;18.50;99.90;;;21.22;60.62;96733.94;5026302;28;20064;-56
2022/09/14 02:38:51;;;;;;;5.85;3.85;;;18.30;99.90;;;21.04;61.54;96724.25;5026444;28;20390;-56
2022/09/14 02:41:56;;;;;;;4.90;3.85;;;18.20;99.90;;;21.09;60.95;96728.91;5026829;28;20052;-52
2022/09/14 02:44:42;;;;;;;7.38;4.50;;;18.20;99.90;;;21.15;60.57;96717.91;5026972;28;20351;-55
2022/09/14 02:47:38;;;;;;;5.25;4.75;;;18.20;99.90;;;21.10;61.15;96708.91;5027095;28;20328;-54
2022/09/14 02:50:34;;;;;;;6.07;4.90;;;18.20;99.90;;;21.15;60.90;96687.31;5026550;28;20041;-55
2022/09/14 02:53:43;;;;;;;6.43;5.20;;;18.20;99.90;;;21.22;60.58;96688.75;5025061;28;20115;-52
2022/09/14 02:56:12;;;;;;;8.75;5.00;;;18.30;99.90;;;21.28;61.19;96686.94;5024758;28;20259;-53
2022/09/14 02:58:44;;;;;;;9.52;4.95;;;18.40;99.90;;;21.32;61.08;96692.66;5026070;28;20297;-55
2022/09/14 03:01:17;;;;;;;8.27;5.53;;;18.40;99.90;;;;;;5026876;28;20057;-52
2022/09/14 03:03:45;;;;;;;8.07;5.55;;;18.40;99.90;;;21.39;60.80;96679.75;5026662;28;20065;-51
2022/09/14 03:06:14;;;;;;;6.93;4.70;;;18.40;99.90;;;21.40;61.22;96668.69;5027398;28;20044;-49
2022/09/14 03:08:43;;;;;;;6.40;5.15;;;18.50;99.90;;;21.45;60.68;96661.72;5028656;28;20228;-51
2022/09/14 03:11:11;;;;;;;5.55;4.68;;;18.50;99.90;;;21.46;61.08;96661.47;5026436;28;20335;-54
2022/09/14 03:13:39;;;;;;;6.43;5.32;;;18.60;99.90;;;21.51;61.14;96650.66;5026449;28;20049;-54
2022/09/14 03:16:11;;;;;;;8.23;5.22;;;18.60;99.90;;;21.58;60.99;96640.44;5027514;28;20064;-54
2022/09/14 03:18:39;;;;;;;8.88;5.18;;;18.60;99.90;;;21.64;60.50;96641.31;5027640;28;20076;-52
2022/09/14 03:21:11;;;;;;;5.03;4.53;;;18.70;99.90;;;21.68;60.75;96649.75;5027067;28;20059;-54
2022/09/14 03:23:49;;;;;;;5.60;4.28;;;18.80;99.90;;;21.73;60.46;96649.78;5027704;28;20644;-53
2022/09/14 03:26:22;;;;;;;6.32;4.97;;;18.80;99.90;;;21.76;60.49;96650.09;5027117;28;20041;-51
2022/09/14 03:28:52;;;;;;;5.45;4.22;;;18.80;99.90;;;21.78;60.30;96647.13;5025627;28;20053;-53
2022/09/14 03:31:20;;;;;;;5.25;4.25;;;18.80;99.90;;;21.76;60.61;96619.50;5026964;28;20055;-55
2022/09/14 03:33:57;;;;;;;6.47;5.22;;;18.80;99.90;;;21.77;60.95;96631.94;5023662;28;20045;-53
2022/09/14 03:36:28;;;;;;;5.68;4.68;;;18.80;99.90;;;21.77;60.72;96631.94;5026341;28;20086;-51
2022/09/14 03:38:58;;;;;;;6.65;4.72;;;18.80;99.90;;;21.78;60.98;96644.44;5025930;28;20059;-53
2022/09/14 03:41:26;;;;;;;5.50;4.35;;;18.80;99.90;;;21.78;60.83;96641.72;5024997;28;20054;-56
2022/09/14 03:43:54;;;;;;;5.32;4.82;;;18.80;99.90;;;21.85;61.15;96652.31;5025948;28;20087;-54
2022/09/14 03:46:23;;;;;;;4.20;3.80;;;18.90;99.90;;;21.86;60.81;96646.66;5026464;28;20041;-56
2022/09/14 03:48:54;;;;;;;5.50;3.90;;;18.90;99.90;;;21.86;60.62;96635.81;5026999;28;20060;-56
2022/09/14 03:51:22;;;;;;;5.72;4.45;;;19.00;99.90;;;21.84;60.58;96629.84;5027561;28;20045;-53
2022/09/14 03:53:50;;;;;;;6.47;4.25;;;19.00;99.90;;;21.88;60.42;96627.44;5024165;28;20359;-52
2022/09/14 03:56:21;;;;;;;4.45;3.90;;;19.00;99.90;;;21.90;60.70;96622.56;5025249;28;20059;-54
2022/09/14 03:58:49;;;;;;;6.50;4.20;;;19.00;99.90;;;21.90;60.74;96623.38;5026598;28;20052;-54
2022/09/14 04:01:21;;;;;;;9.55;3.88;;;19.10;99.90;;;21.89;60.54;96623.63;5025768;28;20045;-53
2022/09/14 04:03:49;;;;;;;4.85;3.83;;;19.10;99.90;;;21.84;60.90;96610.88;5025468;28;20053;-52
2022/09/14 04:06:18;;;;;;;6.22;3.83;;;19.10;99.90;;;21.87;60.63;96609.53;5024897;28;20041;-52
2022/09/14 04:08:46;;;;;;;5.35;3.85;;;19.10;99.90;;;21.90;60.72;96598.19;5027034;28;20038;-55
2022/09/14 04:11:21;;;;;;;5.00;4.03;;;19.10;99.90;;;21.92;61.10;96598.75;5025609;28;20047;-53
2022/09/14 04:13:51;;;;;;;4.13;3.42;;;19.20;99.90;;;21.94;60.68;96591.19;5026382;28;20044;-50
2022/09/14 04:16:21;;;;;;;5.45;3.78;;;19.20;99.90;;;21.95;60.63;96590.94;5023998;28;20056;-54
2022/09/14 04:18:48;;;;;;;5.65;4.05;;;19.10;99.90;;;21.97;60.43;96596.91;5026192;28;20057;-54
2022/09/14 04:21:23;;;;;;;4.60;4.05;;;19.10;99.90;;;21.98;60.58;96606.69;5026680;28;20359;-52
2022/09/14 04:23:56;;;;;;;4.85;3.33;;;19.10;99.90;;;21.99;60.95;96602.88;5024939;28;20052;-54
2022/09/14 04:26:43;;;;;;;5.45;4.25;;;19.00;99.90;;;22.01;60.59;96603.44;5025688;28;20051;-53
2022/09/14 04:29:13;;;;;;;6.28;3.80;;;19.10;99.90;;;22.00;60.48;96592.84;5041407;28;20237;-55
2022/09/14 04:31:41;;;;;;;5.38;4.18;;;19.10;99.90;;;22.00;60.49;96582.84;5025272;28;20049;-54
2022/09/14 04:34:12;;;;;;;5.47;3.90;;;19.20;99.90;;;22.02;60.64;96599.66;5025636;28;20049;-50
2022/09/14 04:36:40;;;;;;;6.65;4.38;;;19.20;99.90;;;22.03;60.64;96598.56;5026600;28;20057;-50
2022/09/14 04:39:12;;;;;;;5.03;3.75;;;19.20;99.90;;;21.99;60.91;96600.16;5026461;28;20059;-54
2022/09/14 04:41:40;;;;;;;6.53;4.40;;;19.20;99.90;;;22.01;60.87;96602.63;5026176;28;20053;-53
2022/09/14 04:44:08;;;;;;;6.30;4.60;;;19.20;99.90;;;21.99;60.74;96610.19;5025198;28;20053;-57
2022/09/14 04:46:38;;;;;;;5.85;4.53;;;19.20;99.90;;;22.00;60.68;96622.66;5024992;28;20049;-54
2022/09/14 04:49:17;;;;;;;7.30;4.78;;;19.10;99.90;;;22.03;60.89;96622.16;5025696;28;20042;-54
2022/09/14 04:51:45;;;;;;;8.77;5.05;;;19.00;99.90;;;22.02;60.66;96678.25;5025955;28;20045;-52
2022/09/14 04:54:16;;;;;;;8.48;7.60;;;19.00;99.90;;;21.35;62.04;96679.44;5026020;28;20049;-54
2022/09/14 04:56:44;;;;;;;8.32;7.53;;;18.50;99.90;;;21.48;61.54;96658.47;5024922;28;20055;-52
2022/09/14 04:59:14;;;;;;;9.43;7.85;;;18.40;99.90;;;21.23;62.57;96660.63;5025003;28;20358;-53
2022/09/14 05:01:46;;;;;;;10.98;7.53;;;18.30;99.90;;;21.15;63.12;96671.06;5024290;28;20061;-57
2022/09/14 05:04:15;;;;;;;7.90;7.07;;;18.20;99.90;;;21.24;62.79;96659.53;5027211;28;20061;-52
2022/09/14 05:06:43;;;;;;;7.72;6.93;;;18.20;99.90;;;21.31;62.28;96653.13;5029816;28;20355;-54
2022/09/14 05:09:15;;;;;;;8.50;7.43;;;18.40;99.90;;;21.33;62.42;96651.81;5029145;28;20059;-54
2022/09/14 05:11:44;;;;;;;7.63;6.93;;;18.40;99.90;;;21.42;62.34;96654.88;5028064;28;20049;-53
2022/09/14 05:14:13;;;;;;;10.18;9.02;;;18.40;99.90;;;21.50;62.57;96650.91;5029164;28;20060;-54
2022/09/14 05:16:43;;;;;;;9.45;8.43;;;18.50;99.90;;;21.54;62.24;96630.38;5029082;28;20051;-54
2022/09/14 05:19:17;;;;;;;9.38;8.48;;;18.60;99.90;;;21.61;61.82;96637.22;5028879;28;20049;-53
2022/09/14 05:21:45;;;;;;;8.75;7.95;;;18.60;99.90;;;21.66;62.10;96630.25;5026912;28;20051;-54
2022/09/14 05:24:17;;;;;;;9.93;8.93;;;18.70;99.90;;;21.68;62.28;96641.63;5027232;28;20051;-53
2022/09/14 05:26:45;;;;;;;9.73;8.13;;;18.70;99.90;;;21.70;61.97;96636.78;5028568;28;20053;-53
2022/09/14 05:29:16;;;;;;;8.57;7.35;;;18.80;99.90;;;21.75;62.07;96647.63;5027597;28;20052;-52
2022/09/14 05:31:44;;;;;;;13.35;8.00;;;18.80;99.90;;;21.75;61.65;96645.75;5028480;28;20059;-54
2022/09/14 05:34:12;;;;;;;9.65;7.97;;;18.80;99.90;;;21.77;61.80;96650.91;5029433;28;20068;-52
2022/09/14 05:36:40;;;;;;;9.75;7.40;;;18.80;99.90;;;21.73;61.85;96650.63;5029747;28;20057;-54
2022/09/14 05:39:09;;;;;;;8.32;7.22;;;18.70;99.90;;;21.73;61.76;96641.66;5028448;28;20063;-54
2022/09/14 05:41:37;;;;;;;10.13;7.45;;;18.70;99.90;;;21.75;61.60;96653.88;5029231;28;20059;-53
2022/09/14 05:44:05;;;;;;;10.27;7.28;;;18.80;99.90;;;21.76;61.98;96643.88;5027430;28;20057;-55
2022/09/14 05:46:33;;;;;;;10.18;9.15;;;18.80;99.90;;;21.80;61.48;96648.50;5027390;28;20034;-53
2022/09/14 05:49:02;;;;;;;9.80;7.30;;;18.80;99.90;;;21.80;61.77;96645.78;5029551;28;20049;-54
2022/09/14 05:51:30;;;;;;;8.80;7.07;;;18.80;99.90;;;21.82;61.73;96635.50;5029676;28;20050;-54
2022/09/14 05:53:58;;;;;;;8.98;8.02;;;18.80;99.90;;;21.86;61.72;96624.16;5027533;28;20053;-51
2022/09/14 05:56:29;;;;;;;9.10;7.15;;;18.90;99.90;;;21.90;61.87;96626.09;5028978;28;20079;-53
2022/09/14 05:58:58;;;;;;;8.40;7.20;;;18.90;99.90;;;21.91;61.93;96626.94;5027064;28;20243;-53
2022/09/14 06:01:29;;;;;;;7.97;7.25;;;18.90;99.90;;;21.94;62.11;96620.97;5028740;28;20053;-55
2022/09/14 06:04:03;;;;;;;8.15;6.53;;;18.90;99.90;;;21.98;61.51;96622.94;5028204;28;20046;-54
2022/09/14 06:06:32;;;;;;;7.53;6.22;;;19.00;99.90;;;22.03;61.84;96622.16;5028665;28;20045;-53
2022/09/14 06:09:00;;;;;;;7.20;6.50;;;19.00;99.90;;;22.07;61.75;96630.56;5026765;28;20041;-54
2022/09/14 06:11:32;;;;;;;8.75;6.22;;;19.10;99.90;;;22.11;61.97;96642.53;5027012;28;20076;-52
2022/09/14 06:14:00;;;;;;;6.63;5.60;;;19.20;99.90;;;22.14;61.81;96639.28;5028914;28;20061;-53
2022/09/14 06:16:29;;;;;;;6.15;5.57;;;19.20;99.90;;;22.14;61.93;96640.13;5028054;28;20053;-55
2022/09/14 06:18:58;;;;;;;7.90;5.85;;;19.20;99.90;;;22.18;62.07;96637.72;5028453;28;20053;-54
2022/09/14 06:21:33;;;;;;;6.05;5.45;;;19.20;99.90;;;22.15;61.96;96630.09;5025404;28;20049;-53
2022/09/14 06:24:01;;;;;;;5.55;4.90;;;19.20;99.90;;;22.15;62.04;96638.22;5027547;28;20045;-56
2022/09/14 06:26:29;;;;;;;7.82;6.15;;;19.20;99.90;;;22.19;62.03;96631.19;5027703;28;20331;-53
2022/09/14 06:28:57;;;;;;;5.88;5.25;;;19.30;99.90;;;22.23;62.28;96618.75;5027855;28;20536;-57
2022/09/14 06:31:25;;;;;;;5.45;4.93;;;19.30;99.90;;;22.28;62.15;96626.16;5028341;28;20052;-52
2022/09/14 06:33:53;;;;;;;6.20;5.63;;;19.40;99.90;;;22.32;62.13;96628.06;5025758;28;20057;-53
2022/09/14 06:36:24;;;;;;;6.68;5.95;;;19.50;99.90;;;22.35;62.30;96624.00;5028147;28;20512;-52
2022/09/14 06:38:53;;;;;;;9.15;5.38;;;19.60;99.90;;;22.39;61.96;96622.41;5027879;28;20059;-54
2022/09/14 06:41:31;;;;;;;7.45;5.65;;;19.60;99.90;;;22.45;62.45;96625.97;5026370;28;20052;-52
2022/09/14 06:44:00;;;;;;;11.02;5.10;;;19.70;99.90;;;22.47;62.39;96624.66;5027995;28;20631;-53
2022/09/14 06:46:32;;;;;;;8.13;5.03;;;19.70;99.90;;;22.52;62.15;96626.56;5027184;28;20429;-51
2022/09/14 06:49:09;;;;;;;9.55;5.60;;;19.70;99.90;;;22.61;62.32;96616.84;5009889;28;20053;-54
2022/09/14 06:51:43;;;;;;;5.85;5.25;;;19.80;99.90;;;22.67;62.15;96620.41;5026068;28;20049;-53
2022/09/14 06:54:14;;;;;;;6.05;4.47;;;19.90;99.90;;;22.73;62.17;96612.03;5016281;28;20045;-54
2022/09/14 06:56:44;;;;;;;5.95;5.07;;;19.90;99.90;;;22.79;62.20;96610.97;5015644;28;20053;-55
2022/09/14 06:59:15;;;;;;;6.63;4.68;;;20.00;99.90;;;22.88;62.17;96608.56;5007789;28;20058;-53
2022/09/14 07:01:48;;;;;;;6.63;3.97;;;20.20;99.90;;;22.96;61.74;96613.47;5007229;28;20046;-57
2022/09/14 07:04:16;;;;;;;4.40;3.97;;;20.30;99.90;;;22.94;62.14;96612.94;5007620;28;20068;-59
2022/09/14 07:06:48;;;;;;;4.72;3.80;;;20.30;99.90;;;23.04;62.04;96623.03;5007810;28;20659;-59
2022/09/14 07:09:18;;;;;;;4.32;3.92;;;20.40;99.90;;;23.06;62.15;96617.34;5022188;28;20057;-59
2022/09/14 07:11:46;;;;;;;5.93;4.80;;;20.50;99.90;;;23.15;62.18;96623.91;5007118;28;20397;-58
2022/09/14 07:14:14;;;;;;;5.88;3.95;;;20.60;99.90;;;23.21;62.33;96625.53;5008181;28;20344;-57
2022/09/14 07:16:42;;;;;;;11.77;4.90;;;20.60;99.90;;;23.27;62.14;96629.09;5006854;28;20217;-55
2022/09/14 07:19:13;;;;;;;4.38;3.95;;;20.70;99.90;;;23.26;62.09;96641.84;5006746;28;20049;-56
2022/09/14 07:21:41;;;;;;;5.15;3.92;;;20.70;99.90;;;23.25;62.18;96634.78;5022433;28;20046;-56
2022/09/14 07:24:12;;;;;;;5.85;4.15;;;20.70;99.90;;;23.27;62.43;96645.38;5022903;28;20402;-56
2022/09/14 07:26:41;;;;;;;4.90;4.00;;;20.80;99.90;;;23.33;62.07;96638.88;5022956;28;20050;-57
2022/09/14 07:29:17;;;;;;;6.10;4.18;;;20.80;99.90;;;23.45;62.30;96638.63;5021377;28;20053;-56
2022/09/14 07:31:48;;;;;;;5.18;3.72;;;20.90;99.90;;;23.55;61.90;96639.50;5006659;28;20050;-57
2022/09/14 07:34:17;;;;;;;4.38;3.70;;;21.00;99.90;;;23.64;61.92;96637.03;5005926;28;20567;-52
2022/09/14 07:36:45;;;;;;;4.47;4.07;;;21.10;99.90;;;23.69;61.98;96645.22;5021979;28;20045;-53
2022/09/14 07:39:16;;;;;;;7.00;4.25;;;21.20;99.90;;;23.78;61.59;96643.59;5006443;28;20336;-52
2022/09/14 07:41:44;;;;;;;4.85;4.13;;;21.30;99.90;;;23.84;61.47;96646.34;5007215;28;20056;-52
2022/09/14 07:44:16;;;;;;;5.07;3.35;;;21.30;99.90;;;23.85;61.13;96651.50;5006462;28;20050;-51
2022/09/14 07:46:45;;;;;;;6.15;3.88;;;21.30;99.90;;;23.91;61.19;96650.41;5006646;28;20290;-51
2022/09/14 07:49:15;;;;;;;6.13;3.92;;;21.40;99.90;;;23.97;61.04;96648.50;5005075;28;20096;-54
2022/09/14 07:51:44;;;;;;;5.10;3.47;;;21.40;99.90;;;23.99;61.08;96649.06;5022119;28;20057;-52
2022/09/14 07:54:15;;;;;;;7.50;3.75;;;21.40;99.90;;;24.05;61.44;96653.41;5006331;28;20057;-50
2022/09/14 07:56:44;;;;;;;4.15;3.60;;;21.50;99.90;;;24.10;61.26;96656.13;5022848;28;20256;-51
2022/09/14 07:59:13;;;;;;;6.60;3.75;;;21.50;99.90;;;24.17;61.26;96659.41;5006646;28;20054;-49
2022/09/14 08:02:01;;;;;;;4.32;3.33;;;21.60;99.90;;;24.25;60.88;96658.00;5025237;28;20067;-53
2022/09/14 08:04:29;;;;;;;5.38;3.72;;;21.70;99.90;;;24.30;60.77;96659.94;5025021;28;20043;-51
2022/09/14 08:06:56;;;;;;;10.35;5.10;;;21.70;99.90;;;24.32;60.95;96661.28;5026185;28;20048;-53
2022/09/14 08:09:24;;;;;;;7.07;4.13;;;21.70;99.90;;;24.37;61.11;96672.16;5024436;28;20044;-53
2022/09/14 08:11:52;;;;;;;4.20;3.47;;;21.80;99.90;;;24.42;60.68;96675.97;5026523;28;20041;-53
2022/09/14 08:14:21;;;;;;;5.35;3.20;;;21.80;99.90;;;24.46;60.44;96677.03;5025147;28;20075;-52
2022/09/14 08:16:48;;;;;;;5.40;3.50;;;21.90;99.90;;;24.46;60.35;96690.66;5027272;28;20037;-55
2022/09/14 08:19:18;;;;;;;5.88;3.30;;;21.90;99.90;;;24.45;60.18;96687.13;5024569;28;20037;-53
2022/09/14 08:21:46;;;;;;;7.35;3.28;;;21.90;99.90;;;24.46;60.02;96686.00;5024955;28;20057;-52
2022/09/14 08:24:19;;;;;;;4.68;3.78;;;21.90;99.90;;;24.53;59.96;96683.06;5023560;28;20053;-53
2022/09/14 08:26:48;;;;;;;6.32;3.70;;;21.90;99.90;;;24.64;59.65;96692.00;5028324;28;20063;-54
2022/09/14 08:29:17;;;;;;;5.38;3.08;;;22.10;99.90;;;24.67;59.56;96713.25;5026056;28;20041;-53
2022/09/14 08:31:47;;;;;;;6.93;3.50;;;22.10;99.90;;;24.69;59.75;96709.13;5025114;28;20532;-54
2022/09/14 08:34:16;;;;;;;3.90;3.50;;;22.10;99.90;;;24.74;59.58;96708.34;5024371;28;20034;-51
2022/09/14 08:36:46;;;;;;;4.22;3.65;;;22.20;99.90;;;24.77;59.68;96710.50;5025197;28;20350;-53
2022/09/14 08:39:15;;;;;;;7.82;3.47;;;22.20;99.90;;;24.76;59.42;96709.69;5027373;28;20394;-51
2022/09/14 08:41:53;;;;;;;8.88;4.18;;;22.20;99.90;;;24.80;59.30;96709.94;5016851;28;20056;-51
2022/09/14 08:44:47;;;;;;;3.83;3.53;;;22.20;99.90;;;24.90;59.19;96720.00;5027286;28;20249;-52
2022/09/14 08:47:27;;;;;;;4.45;3.60;;;22.30;99.90;;;24.96;59.12;96719.69;5022205;28;20064;-49
2022/09/14 08:50:20;;;;;;;4.32;3.72;;;22.30;99.90;;;25.04;59.03;96733.84;5028916;28;20053;-53
2022/09/14 08:52:54;;;;;;;5.50;3.92;;;22.40;99.90;;;25.14;58.62;96745.53;5032422;28;20225;-53
2022/09/14 08:55:48;;;;;;;4.20;3.70;;;22.50;99.90;;;25.21;58.40;96741.69;5029519;28;20049;-52
2022/09/14 08:59:18;;;;;;;4.88;3.60;;;22.60;99.90;;;25.22;58.15;96732.41;5027010;28;20041;-51
2022/09/14 09:02:32;;;;;;;6.05;3.40;;;22.60;99.90;;;25.20;58.06;96710.91;5032324;28;20379;-59
2022/09/14 09:05:03;;;;;;;4.88;3.78;;;22.60;99.90;;;25.22;58.08;96714.22;5035641;28;20045;-60
2022/09/14 09:07:52;;;;;;;7.22;3.92;;;22.60;99.90;;;25.07;58.30;96714.25;5017305;28;20049;-60
2022/09/14 09:10:21;;;;;;;5.43;3.90;;;22.50;99.90;;;25.06;58.29;96701.72;5006543;28;20268;-60
2022/09/14 09:13:03;;;;;;;6.45;3.85;;;22.50;99.90;;;25.09;58.54;96701.97;5009066;28;20213;-60
2022/09/14 09:15:58;;;;;;;5.30;3.63;;;22.60;99.90;;;25.06;58.73;96698.97;5013874;28;20271;-60
2022/09/14 09:18:47;;;;;;;4.70;3.33;;;22.60;99.90;;;25.07;58.39;96703.34;5011300;28;20062;-60
2022/09/14 09:21:31;;;;;;;3.80;3.05;;;22.70;99.90;;;25.07;58.50;96725.13;5008177;28;20050;-60
2022/09/14 09:24:28;;;;;;;3.30;2.97;;;22.70;99.90;;;25.29;58.20;96739.25;5012442;28;20050;-60
2022/09/14 09:27:00;;;;;;;4.00;2.97;;;22.80;99.90;;;25.14;58.12;96740.09;5009346;28;20431;-60
2022/09/14 09:29:28;;;;;;;5.50;3.42;;;22.80;99.90;;;25.24;57.76;96724.81;5007395;28;20340;-60
2022/09/14 09:32:22;;;;;;;4.00;2.73;;;22.90;99.90;;;25.14;57.42;96714.75;5013263;28;20065;-60
2022/09/14 09:35:21;;;;;;;5.13;3.08;;;22.90;99.90;;;25.43;56.85;96717.66;5009643;28;20057;-60
2022/09/14 09:38:00;;;;;;;6.25;3.00;;;22.90;99.90;;;25.50;56.50;96704.56;5014249;28;20264;-60
2022/09/14 09:40:36;;;;;;;4.93;2.55;;;23.00;99.90;;;25.59;56.54;96702.06;5012877;28;20347;-60
2022/09/14 09:43:17;;;;;;;5.88;2.85;;;23.10;99.90;;;25.60;56.61;96700.16;5007452;28;20061;-60
2022/09/14 09:46:06;;;;;;;5.93;2.83;;;23.20;99.90;;;25.84;56.47;96703.84;5015343;28;20057;-60
2022/09/14 09:48:37;;;;;;;6.72;3.10;;;23.30;99.90;;;25.96;56.36;96697.22;5017014;28;20045;-60
2022/09/14 09:51:15;;;;;;;3.92;2.70;;;23.50;99.90;;;26.00;55.85;96696.41;5014190;28;20046;-60
2022/09/14 09:54:08;;;;;;;;;;;23.60;99.90;;;26.26;55.41;96677.91;5017475;28;20205;-61
2022/09/14 09:56:55;;;;;;;4.18;3.28;;;23.70;99.90;;;26.38;55.11;96684.91;5014106;28;19948;-61
2022/09/14 09:59:38;;;;;;;4.07;3.70;;;23.70;99.90;;;26.36;54.28;96671.53;5012374;28;20041;-61
2022/09/14 10:02:24;;;;;;;;;;;23.80;99.90;;;26.32;54.29;96659.56;5017997;28;20366;-61
2022/09/14 10:04:59;;;;;;;4.10;2.70;;;23.80;99.90;;;26.45;54.51;96652.66;5025830;28;19931;-61
2022/09/14 10:07:31;;;;;;;4.53;2.67;;;23.90;99.90;;;26.42;54.55;96654.03;5027931;28;20546;-61
2022/09/14 10:10:13;;;;;;;5.93;3.17;;;23.90;99.90;;;26.27;53.19;96656.91;5009876;28;20057;-61
2022/09/14 10:12:53;;;;;;;4.55;2.97;;;23.90;99.90;;;26.46;53.50;96655.09;5027000;28;20060;-61
2022/09/14 10:15:26;;;;;;;5.80;3.00;;;24.10;99.90;;;26.50;53.76;96653.41;5025804;28;20241;-61
2022/09/14 10:18:05;;;;;;;3.63;2.83;;;24.10;99.90;;;26.60;53.13;96647.06;5025557;28;20055;-61
2022/09/14 10:20:34;;;;;;;7.05;3.60;;;24.30;99.90;;;26.27;52.75;96646.00;5026458;28;20050;-61
2022/09/14 10:23:25;;;;;;;4.72;2.80;;;24.10;99.90;;;26.48;52.75;96641.97;5026658;28;20053;-62
2022/09/14 10:26:12;;;;;;;3.90;3.28;;;24.10;99.90;;;26.52;52.40;96636.72;5025932;28;20267;-62
2022/09/14 10:28:47;;;;;;;2.95;2.65;;;24.20;99.90;;;26.69;52.66;96636.31;5027122;28;20045;-59
2022/09/14 10:31:23;;;;;;;3.75;2.70;;;24.30;99.90;;;26.60;52.19;96630.69;5026051;28;20346;-59
2022/09/14 10:33:56;;;;;;;4.65;3.13;;;24.30;99.90;;;26.82;51.98;96627.44;5025322;28;20049;-60
2022/09/14 10:36:24;;;;;;;;;;;24.40;99.90;;;27.12;51.98;96628.16;5024853;28;20054;-62
2022/09/14 10:39:01;;;;;;;4.45;2.58;;;24.60;99.90;;;27.08;51.50;96613.47;5026213;28;19925;-61
2022/09/14 10:42:11;;;;;;;5.55;2.65;;;24.60;99.90;;;26.72;50.53;96600.28;5026888;28;20243;-61
2022/09/14 10:45:03;;;;;;;2.90;2.53;;;24.50;95.10;;;26.79;50.18;96599.91;5026193;28;20083;-61
2022/09/14 10:48:17;;;;;;;3.67;2.60;;;24.50;97.20;;;26.81;50.33;96592.22;5018736;28;20044;-60
2022/09/14 10:51:19;;;;;;;4.68;2.90;;;24.50;95.00;;;27.00;49.74;96593.09;5025625;28;20355;-60
2022/09/14 10:54:49;;;;;;;3.50;2.95;;;24.60;92.00;;;26.67;49.22;96578.47;5026632;28;20346;-60